createdAt,value
2018-11-02T00:02:11.312Z,48
2018-11-02T00:07:09.476Z,48
2018-11-02T00:12:07.527Z,48
2018-11-02T00:17:05.430Z,48
2018-11-02T00:22:03.886Z,48
2018-11-02T00:27:01.707Z,48
2018-11-02T00:31:59.869Z,48
2018-11-02T00:36:58.132Z,48
2018-11-02T00:41:55.929Z,48
2018-11-02T00:46:53.653Z,48
2018-11-02T00:51:51.236Z,48.1
2018-11-02T00:56:49.137Z,48.1
2018-11-02T01:01:46.758Z,48.1
2018-11-02T01:06:44.525Z,48
2018-11-02T01:11:42.096Z,48
2018-11-02T01:16:40.158Z,48
2018-11-02T01:21:37.965Z,48
2018-11-02T01:26:35.735Z,48
2018-11-02T01:31:33.634Z,48
2018-11-02T01:36:31.196Z,48
2018-11-02T01:41:28.994Z,48.1
2018-11-02T01:46:26.002Z,48.1
2018-11-02T01:51:24.153Z,48.1
2018-11-02T01:56:22.034Z,48.1
2018-11-02T02:01:19.927Z,48.1
2018-11-02T02:06:17.738Z,48.1
2018-11-02T02:11:15.992Z,48.1
2018-11-02T02:16:13.874Z,48
2018-11-02T02:21:12.096Z,48
2018-11-02T02:26:09.907Z,48
2018-11-02T02:31:08.034Z,48
2018-11-02T02:36:05.718Z,48
2018-11-02T02:41:03.247Z,48.1
2018-11-02T02:46:01.427Z,48.1
2018-11-02T02:50:59.402Z,48.1
2018-11-02T02:55:57.060Z,48.1
2018-11-02T03:00:54.819Z,48.1
2018-11-02T03:05:52.398Z,48.1
2018-11-02T03:10:51.081Z,48.1
2018-11-02T03:15:48.992Z,48.1
2018-11-02T03:20:46.651Z,48
2018-11-02T03:25:44.375Z,48
2018-11-02T03:30:42.088Z,48
2018-11-02T03:35:39.871Z,48
2018-11-02T03:40:38.013Z,48
2018-11-02T03:45:36.232Z,48.1
2018-11-02T03:50:34.081Z,48.1
2018-11-02T03:55:32.045Z,48.2
2018-11-02T04:00:29.780Z,48.2
2018-11-02T04:05:27.829Z,48.2
2018-11-02T04:10:25.540Z,48.2
2018-11-02T04:15:23.158Z,48.2
2018-11-02T04:20:21.028Z,48.2
2018-11-02T04:25:19.154Z,48.1
2018-11-02T04:30:17.014Z,48.1
2018-11-02T04:35:14.758Z,48.1
2018-11-02T04:40:12.655Z,48.1
2018-11-02T04:45:09.684Z,48.1
2018-11-02T04:50:07.425Z,48.1
2018-11-02T04:55:04.935Z,48.1
2018-11-02T05:00:02.450Z,48.2
2018-11-02T05:05:00.314Z,48.2
2018-11-02T05:09:58.379Z,48.2
2018-11-02T05:14:56.664Z,48.2
2018-11-02T05:19:54.360Z,48.3
2018-11-02T05:24:52.177Z,48.2
2018-11-02T05:29:50.176Z,48.2
2018-11-02T05:34:48.037Z,48.2
2018-11-02T05:39:45.728Z,48.1
2018-11-02T05:44:43.851Z,48.1
2018-11-02T05:49:42.145Z,48.1
2018-11-02T05:54:40.513Z,48.1
2018-11-02T05:59:38.410Z,48.2
2018-11-02T06:04:36.473Z,48.2
2018-11-02T06:09:34.220Z,48.2
2018-11-02T06:14:31.843Z,48.1
2018-11-02T06:19:30.080Z,48.2
2018-11-02T06:24:28.502Z,48.2
2018-11-02T06:29:26.764Z,48.2
2018-11-02T06:34:25.078Z,48.2
2018-11-02T06:39:23.298Z,48.2
2018-11-02T06:44:20.691Z,48.1
2018-11-02T06:49:18.725Z,48.1
2018-11-02T06:54:16.306Z,48.1
2018-11-02T06:59:14.679Z,48.1
2018-11-02T07:39:10.925Z,48.2
2018-11-02T07:44:09.154Z,48.2
2018-11-02T07:49:07.476Z,48.3
2018-11-02T07:54:05.505Z,48.3
2018-11-02T07:59:03.184Z,48.4
2018-11-02T08:04:00.985Z,48.4
2018-11-02T08:08:58.752Z,48.4
2018-11-02T08:13:58.430Z,48.4
2018-11-02T08:18:59.005Z,48.4
2018-11-02T08:23:59.436Z,48.4
2018-11-02T08:28:57.185Z,48.5
2018-11-02T08:33:54.856Z,48.5
2018-11-02T08:38:52.787Z,48.6
2018-11-02T08:43:50.919Z,48.6
2018-11-02T08:48:49.113Z,48.6
2018-11-02T08:53:47.421Z,48.7
2018-11-02T08:58:46.461Z,48.7
2018-11-02T09:03:44.167Z,48.8
2018-11-02T09:08:41.257Z,48.8
2018-11-02T09:13:39.221Z,48.9
2018-11-02T09:18:37.417Z,48.9
2018-11-02T09:23:35.434Z,48.9
2018-11-02T09:28:33.235Z,48.9
2018-11-02T09:33:31.079Z,49
2018-11-02T09:38:29.081Z,49
2018-11-02T09:43:26.788Z,49
2018-11-02T09:48:25.148Z,49
2018-11-02T09:53:23.146Z,49.1
2018-11-02T09:58:20.925Z,49.1
2018-11-02T10:03:18.784Z,49.2
2018-11-02T10:08:17.286Z,49.2
2018-11-02T10:13:14.705Z,49.3
2018-11-02T10:18:12.619Z,49.3
2018-11-02T10:23:10.704Z,49.3
2018-11-02T10:28:08.984Z,49.3
2018-11-02T10:33:06.918Z,49.4
2018-11-02T10:38:04.911Z,49.4
2018-11-02T10:43:04.205Z,49.4
2018-11-02T10:48:03.999Z,49.4
2018-11-02T10:53:02.870Z,49.5
2018-11-02T10:58:02.527Z,49.5
2018-11-02T11:03:02.463Z,49.5
2018-11-02T11:08:00.508Z,49.5
2018-11-02T11:12:59.753Z,49.5
2018-11-02T11:17:57.719Z,49.6
2018-11-02T11:22:54.961Z,49.6
2018-11-02T11:27:52.932Z,49.6
2018-11-02T11:32:50.695Z,49.6
2018-11-02T11:37:49.015Z,49.6
2018-11-02T11:42:47.811Z,49.6
2018-11-02T11:47:47.438Z,49.6
2018-11-02T11:52:45.699Z,49.6
2018-11-02T11:57:44.797Z,49.6
2018-11-02T12:02:44.029Z,49.6
2018-11-02T12:07:42.060Z,49.6
2018-11-02T12:12:39.489Z,49.6
2018-11-02T12:17:37.954Z,49.6
2018-11-02T12:22:35.874Z,49.6
2018-11-02T12:27:33.865Z,49.7
2018-11-02T12:32:32.218Z,49.7
2018-11-02T12:37:29.628Z,49.7
2018-11-02T12:42:27.557Z,49.7
2018-11-02T12:47:25.515Z,49.7
2018-11-02T12:52:23.571Z,49.7
2018-11-02T12:57:22.012Z,49.7
2018-11-02T13:02:19.593Z,49.7
2018-11-02T13:07:18.127Z,49.7
2018-11-02T13:12:15.978Z,49.6
2018-11-02T13:17:14.137Z,49.7
2018-11-02T13:22:11.996Z,49.7
2018-11-02T13:27:10.228Z,49.7
2018-11-02T13:32:08.175Z,49.7
2018-11-02T13:37:06.191Z,49.7
2018-11-02T13:42:04.465Z,49.6
2018-11-02T13:47:02.044Z,49.6
2018-11-02T13:51:59.954Z,49.6
2018-11-02T13:56:57.881Z,49.6
2018-11-02T14:01:56.044Z,49.6
2018-11-02T14:06:53.999Z,49.5
2018-11-02T14:11:52.407Z,49.5
2018-11-02T14:16:50.865Z,49.5
2018-11-02T14:21:48.756Z,49.5
2018-11-02T14:26:46.679Z,49.5
2018-11-02T14:31:44.787Z,49.5
2018-11-02T14:36:43.221Z,49.4
2018-11-02T14:41:41.396Z,49.4
2018-11-02T14:46:39.500Z,49.3
2018-11-02T14:51:37.921Z,49.3
2018-11-02T14:56:35.729Z,49.3
2018-11-02T15:01:33.759Z,49.2
2018-11-02T15:06:32.089Z,49.2
2018-11-02T15:11:30.805Z,49.2
2018-11-02T15:16:28.712Z,49.2
2018-11-02T15:21:27.012Z,49.1
2018-11-02T15:26:25.689Z,49.1
2018-11-02T15:31:23.109Z,49
2018-11-02T15:36:21.431Z,49
2018-11-02T15:41:19.586Z,49
2018-11-02T15:46:17.721Z,48.9
2018-11-02T15:51:15.706Z,48.9
2018-11-02T15:56:14.272Z,48.8
2018-11-02T16:01:12.191Z,48.8
2018-11-02T16:06:09.847Z,48.8
2018-11-02T16:11:07.438Z,48.9
2018-11-02T16:16:05.677Z,48.8
2018-11-02T16:21:03.760Z,48.8
2018-11-02T16:26:01.644Z,48.8
2018-11-02T16:30:59.753Z,48.8
2018-11-02T16:35:58.117Z,48.7
2018-11-02T16:40:56.024Z,48.7
2018-11-02T16:45:53.916Z,48.7
2018-11-02T16:50:51.696Z,48.7
2018-11-02T16:55:49.647Z,48.7
2018-11-02T17:00:48.147Z,48.7
2018-11-02T17:05:46.130Z,48.7
2018-11-02T17:10:44.025Z,48.8
2018-11-02T17:15:41.911Z,48.7
2018-11-02T17:20:39.805Z,48.7
2018-11-02T17:25:38.266Z,48.7
2018-11-02T17:30:35.742Z,48.6
2018-11-02T17:35:34.045Z,48.6
2018-11-02T17:40:31.891Z,48.6
2018-11-02T17:45:30.000Z,48.6
2018-11-02T17:50:28.371Z,48.5
2018-11-02T17:55:26.985Z,48.6
2018-11-02T18:00:24.941Z,48.6
2018-11-02T18:05:23.451Z,48.6
2018-11-02T18:10:21.533Z,48.6
2018-11-02T18:15:19.646Z,48.5
2018-11-02T18:20:17.849Z,48.5
2018-11-02T18:25:15.921Z,48.5
2018-11-02T18:30:13.757Z,48.5
2018-11-02T18:35:11.966Z,48.5
2018-11-02T18:40:09.937Z,48.5
2018-11-02T18:45:08.209Z,48.4
2018-11-02T18:50:06.072Z,48.4
2018-11-02T18:55:04.365Z,48.4
2018-11-02T19:00:02.690Z,48.4
2018-11-02T19:05:01.165Z,48.5
2018-11-02T19:09:59.016Z,48.4
2018-11-02T19:14:57.799Z,48.4
2018-11-02T19:19:55.790Z,48.3
2018-11-02T19:24:53.390Z,48.3
2018-11-02T19:29:51.266Z,48.3
2018-11-02T19:34:49.852Z,48.2
2018-11-02T19:39:47.517Z,48.2
2018-11-02T19:44:45.132Z,48.2
2018-11-02T19:49:43.194Z,48.2
2018-11-02T19:54:40.802Z,48.2
2018-11-02T19:59:38.698Z,48.2
2018-11-02T20:04:37.054Z,48.2
2018-11-02T20:09:35.787Z,48.2
2018-11-02T20:14:33.813Z,48.2
2018-11-02T20:19:31.708Z,48.2
2018-11-02T20:24:28.807Z,48.2
2018-11-02T20:29:27.029Z,48.2
2018-11-02T20:34:25.296Z,48.2
2018-11-02T20:39:23.909Z,48.2
2018-11-02T20:44:22.245Z,48.2
2018-11-02T20:49:20.704Z,48.1
2018-11-02T20:54:18.667Z,48.2
2018-11-02T20:59:16.560Z,48.2
2018-11-02T21:04:14.872Z,48.2
2018-11-02T21:09:13.608Z,48.2
2018-11-02T21:14:11.951Z,48.2
2018-11-02T21:19:09.972Z,48.2
2018-11-02T21:24:07.912Z,48.2
2018-11-02T21:29:05.718Z,48.2
2018-11-02T21:34:03.677Z,48.2
2018-11-02T21:39:01.378Z,48.2
2018-11-02T21:43:59.283Z,48.2
2018-11-02T21:48:57.284Z,48.2
2018-11-02T21:53:54.944Z,48.1
2018-11-02T21:58:52.883Z,48.2
2018-11-02T22:03:50.722Z,48.2
2018-11-02T22:08:48.178Z,48.2
2018-11-02T22:13:45.832Z,48.2
2018-11-02T22:18:43.440Z,48.2
2018-11-02T22:23:41.422Z,48.2
2018-11-02T22:28:39.358Z,48.2
2018-11-02T22:33:37.221Z,48.3
2018-11-02T22:38:34.576Z,48.3
2018-11-02T22:43:32.854Z,48.3
2018-11-02T22:48:30.903Z,48.2
2018-11-02T22:53:29.361Z,48.2
2018-11-02T22:58:27.382Z,48.2
2018-11-02T23:03:25.562Z,48.2
2018-11-02T23:08:23.303Z,48.2
2018-11-02T23:13:21.728Z,48.2
2018-11-02T23:18:19.763Z,48.2
2018-11-02T23:23:17.137Z,48.2
2018-11-02T23:28:15.094Z,48.2
2018-11-02T23:33:12.570Z,48.2
2018-11-02T23:38:10.319Z,48.2
2018-11-02T23:43:08.701Z,48.2
2018-11-02T23:48:06.922Z,48.2
2018-11-02T23:53:04.949Z,48.1
2018-11-02T23:58:02.867Z,48.1
